createdAt,value
2023-01-17T00:01:00.236Z,0.73
2023-01-17T00:03:31.099Z,0.45
2023-01-17T00:06:16.423Z,1.00
2023-01-17T00:08:59.136Z,0.80
2023-01-17T00:11:29.374Z,1.05
2023-01-17T00:14:00.853Z,1.13
2023-01-17T00:16:31.076Z,1.30
2023-01-17T00:19:13.547Z,0.60
2023-01-17T00:21:58.832Z,0.88
2023-01-17T00:24:41.236Z,0.60
2023-01-17T00:27:14.762Z,0.70
2023-01-17T00:29:42.296Z,0.60
2023-01-17T00:32:09.729Z,0.43
2023-01-17T00:34:36.940Z,0.70
2023-01-17T00:37:07.051Z,0.45
2023-01-17T00:39:34.231Z,0.52
2023-01-17T00:42:01.527Z,1.20
2023-01-17T00:44:44.248Z,0.70
2023-01-17T00:47:26.980Z,0.53
2023-01-17T00:50:09.683Z,0.73
2023-01-17T00:52:55.036Z,0.60
2023-01-17T00:55:37.809Z,0.75
2023-01-17T00:58:22.030Z,0.73
2023-01-17T01:01:04.603Z,0.82
2023-01-17T01:03:48.439Z,0.80
2023-01-17T01:06:30.884Z,1.17
2023-01-17T01:09:16.182Z,0.53
2023-01-17T01:11:58.882Z,0.60
2023-01-17T01:14:41.343Z,0.55
2023-01-17T01:17:24.048Z,0.50
2023-01-17T01:20:06.778Z,0.50
2023-01-17T01:22:49.476Z,0.80
2023-01-17T01:25:34.843Z,0.43
2023-01-17T01:28:21.065Z,0.73
2023-01-17T01:31:03.743Z,0.80
2023-01-17T01:33:31.195Z,0.77
2023-01-17T01:36:01.127Z,0.60
2023-01-17T01:38:31.130Z,0.70
2023-01-17T01:41:03.937Z,1.00
2023-01-17T01:43:47.119Z,0.68
2023-01-17T01:46:18.579Z,0.60
2023-01-17T01:48:52.684Z,0.73
2023-01-17T01:51:25.591Z,0.68
2023-01-17T01:54:01.847Z,0.83
2023-01-17T01:56:35.173Z,0.67
2023-01-17T01:59:06.318Z,0.80
2023-01-17T02:01:38.947Z,0.87
2023-01-17T02:04:10.511Z,0.57
2023-01-17T02:06:44.110Z,0.82
2023-01-17T02:09:15.445Z,0.52
2023-01-17T02:11:49.568Z,1.23
2023-01-17T02:14:20.290Z,0.60
2023-01-17T02:16:56.926Z,0.63
2023-01-17T02:19:40.807Z,0.93
2023-01-17T02:22:25.718Z,0.77
2023-01-17T02:25:10.576Z,0.70
2023-01-17T02:30:38.434Z,0.60
2023-01-17T02:33:30.298Z,0.50
2023-01-17T02:36:08.734Z,0.80
2023-01-17T02:38:43.435Z,0.52
2023-01-17T02:41:17.077Z,0.50
2023-01-17T02:43:47.572Z,0.52
2023-01-17T02:46:20.447Z,0.90
2023-01-17T02:48:51.302Z,0.87
2023-01-17T02:51:42.333Z,0.97
2023-01-17T02:54:19.808Z,1.67
2023-01-17T02:57:01.109Z,0.65
2023-01-17T02:59:39.799Z,1.23
2023-01-17T03:02:20.100Z,1.27
2023-01-17T03:04:55.879Z,1.17
2023-01-17T03:07:28.056Z,0.63
2023-01-17T03:10:01.992Z,1.00
2023-01-17T03:12:32.656Z,0.90
2023-01-17T03:15:02.630Z,1.00
2023-01-17T03:17:36.240Z,0.60
2023-01-17T03:20:06.509Z,0.85
2023-01-17T03:22:36.667Z,1.33
2023-01-17T03:25:07.093Z,1.27
2023-01-17T03:27:37.161Z,0.90
2023-01-17T03:30:07.907Z,1.27
2023-01-17T03:32:41.065Z,1.10
2023-01-17T03:35:11.980Z,1.47
2023-01-17T03:37:42.162Z,1.17
2023-01-17T03:40:13.011Z,1.27
2023-01-17T03:42:43.254Z,1.50
2023-01-17T03:45:14.110Z,1.13
2023-01-17T03:47:47.162Z,1.03
2023-01-17T03:50:17.522Z,0.93
2023-01-17T03:52:47.732Z,1.27
2023-01-17T03:55:18.001Z,0.90
2023-01-17T03:57:48.023Z,1.10
2023-01-17T04:00:18.652Z,1.40
2023-01-17T04:02:51.523Z,1.10
2023-01-17T04:05:21.872Z,1.43
2023-01-17T04:07:52.076Z,1.10
2023-01-17T04:10:22.123Z,1.30
2023-01-17T04:12:52.067Z,1.23
2023-01-17T04:15:22.288Z,1.20
2023-01-17T04:17:55.142Z,1.60
2023-01-17T04:20:31.584Z,1.13
2023-01-17T04:23:01.802Z,1.17
2023-01-17T04:25:32.630Z,0.87
2023-01-17T04:28:04.393Z,1.43
2023-01-17T04:30:35.522Z,1.13
2023-01-17T04:33:08.436Z,0.97
2023-01-17T04:35:38.759Z,1.40
2023-01-17T04:38:08.941Z,0.77
2023-01-17T04:40:38.925Z,1.57
2023-01-17T04:43:09.122Z,1.10
2023-01-17T04:45:39.360Z,1.20
2023-01-17T04:48:12.985Z,1.30
2023-01-17T04:50:43.416Z,1.10
2023-01-17T04:53:13.591Z,1.20
2023-01-17T04:55:43.817Z,1.03
2023-01-17T04:58:14.036Z,1.23
2023-01-17T05:00:44.305Z,1.30
2023-01-17T05:03:16.794Z,1.20
2023-01-17T05:05:47.338Z,1.53
2023-01-17T05:08:17.603Z,1.30
2023-01-17T05:10:49.317Z,1.60
2023-01-17T05:13:19.381Z,1.00
2023-01-17T05:15:49.676Z,1.23
2023-01-17T05:18:22.794Z,1.37
2023-01-17T05:20:53.034Z,1.55
2023-01-17T05:23:23.309Z,1.60
2023-01-17T05:25:53.565Z,1.77
2023-01-17T05:28:23.829Z,1.60
2023-01-17T05:30:53.865Z,1.73
2023-01-17T05:33:27.133Z,1.47
2023-01-17T05:35:57.348Z,1.77
2023-01-17T05:38:27.627Z,1.73
2023-01-17T05:40:57.910Z,1.93
2023-01-17T05:43:27.889Z,2.60
2023-01-17T05:45:58.318Z,1.70
2023-01-17T05:48:31.180Z,1.90
2023-01-17T05:51:01.613Z,2.07
2023-01-17T05:53:31.512Z,2.13
2023-01-17T05:56:01.721Z,1.90
2023-01-17T05:58:34.973Z,2.20
2023-01-17T06:01:05.374Z,2.10
2023-01-17T06:03:38.322Z,2.03
2023-01-17T06:06:08.689Z,2.60
2023-01-17T06:08:38.942Z,2.30
2023-01-17T06:11:09.325Z,3.20
2023-01-17T06:13:39.487Z,2.00
2023-01-17T06:16:10.022Z,2.40
2023-01-17T06:18:42.869Z,2.20
2023-01-17T06:21:13.171Z,2.53
2023-01-17T06:23:43.388Z,2.33
2023-01-17T06:26:14.038Z,2.57
2023-01-17T06:28:44.539Z,2.53
2023-01-17T06:31:14.871Z,2.57
2023-01-17T06:33:47.755Z,2.40
2023-01-17T06:36:18.022Z,2.77
2023-01-17T06:38:48.449Z,2.27
2023-01-17T06:41:18.707Z,2.70
2023-01-17T06:43:48.902Z,2.30
2023-01-17T06:46:19.108Z,2.53
2023-01-17T06:48:52.167Z,2.60
2023-01-17T06:51:28.761Z,2.90
2023-01-17T06:54:02.075Z,2.87
2023-01-17T06:56:33.842Z,2.50
2023-01-17T06:59:03.747Z,3.27
2023-01-17T07:01:34.324Z,2.70
2023-01-17T07:04:07.406Z,2.40
2023-01-17T07:06:38.974Z,2.47
2023-01-17T07:09:09.169Z,2.40
2023-01-17T07:11:39.378Z,2.73
2023-01-17T07:14:09.590Z,2.70
2023-01-17T07:16:39.522Z,2.43
2023-01-17T07:19:12.397Z,2.60
2023-01-17T07:21:42.409Z,2.53
2023-01-17T07:24:12.851Z,2.30
2023-01-17T07:26:43.768Z,3.00
2023-01-17T07:29:14.025Z,3.20
2023-01-17T07:31:44.339Z,3.10
2023-01-17T07:34:17.229Z,3.37
2023-01-17T07:36:49.743Z,3.70
2023-01-17T07:39:20.024Z,2.90
2023-01-17T07:41:50.393Z,2.77
2023-01-17T07:44:22.845Z,13.33
2023-01-17T07:46:52.819Z,10.07
2023-01-17T07:49:25.436Z,8.30
2023-01-17T07:51:55.714Z,6.63
2023-01-17T07:54:25.957Z,6.30
2023-01-17T07:56:56.279Z,6.23
2023-01-17T07:59:26.481Z,3.70
2023-01-17T08:01:56.791Z,5.10
2023-01-17T08:04:34.834Z,4.67
2023-01-17T08:07:05.281Z,4.67
2023-01-17T08:09:35.638Z,2.97
2023-01-17T08:12:05.677Z,3.30
2023-01-17T08:14:35.972Z,4.33
2023-01-17T08:17:09.233Z,3.23
2023-01-17T08:19:42.081Z,3.13
2023-01-17T08:22:12.983Z,3.77
2023-01-17T08:24:43.258Z,2.50
2023-01-17T08:27:13.473Z,3.43
2023-01-17T08:29:47.247Z,2.77
2023-01-17T08:32:17.445Z,3.20
2023-01-17T08:34:50.243Z,3.20
2023-01-17T08:37:20.763Z,2.97
2023-01-17T08:39:50.956Z,3.03
2023-01-17T08:42:21.166Z,3.60
2023-01-17T08:44:51.296Z,3.50
2023-01-17T08:47:21.466Z,4.20
2023-01-17T08:49:54.236Z,3.00
2023-01-17T08:52:24.375Z,2.37
2023-01-17T08:54:54.573Z,3.43
2023-01-17T08:57:25.048Z,3.23
2023-01-17T08:59:55.283Z,2.70
2023-01-17T09:02:25.498Z,2.23
2023-01-17T09:04:57.967Z,3.23
2023-01-17T09:07:28.548Z,3.00
2023-01-17T09:09:58.945Z,3.00
2023-01-17T09:12:29.183Z,2.93
2023-01-17T09:14:59.312Z,2.53
2023-01-17T09:17:29.334Z,2.80
2023-01-17T09:20:01.939Z,2.20
2023-01-17T09:22:32.138Z,2.10
2023-01-17T09:25:02.294Z,1.97
2023-01-17T09:27:32.543Z,2.17
2023-01-17T09:30:02.720Z,1.73
2023-01-17T09:32:32.889Z,1.90
2023-01-17T09:35:07.368Z,1.90
2023-01-17T09:40:08.161Z,1.57
2023-01-17T09:42:43.217Z,1.63
2023-01-17T09:45:20.628Z,1.90
2023-01-17T09:47:53.942Z,1.73
2023-01-17T09:50:33.165Z,1.37
2023-01-17T09:53:05.533Z,1.60
2023-01-17T09:55:42.663Z,1.10
2023-01-17T09:58:15.651Z,1.40
2023-01-17T10:00:55.938Z,1.47
2023-01-17T10:03:46.531Z,1.07
2023-01-17T10:06:33.239Z,1.53
2023-01-17T10:09:24.125Z,1.60
2023-01-17T10:12:09.650Z,1.37
2023-01-17T10:14:58.164Z,1.93
2023-01-17T10:17:40.214Z,1.83
2023-01-17T10:20:34.006Z,1.30
2023-01-17T10:23:26.322Z,1.70
2023-01-17T10:25:59.203Z,1.13
2023-01-17T10:28:35.858Z,1.70
2023-01-17T10:31:08.895Z,1.30
2023-01-17T10:33:43.561Z,1.17
2023-01-17T10:36:18.001Z,1.40
2023-01-17T10:41:27.039Z,1.07
2023-01-17T10:44:09.639Z,1.77
2023-01-17T10:46:44.279Z,1.30
2023-01-17T10:49:19.321Z,1.33
2023-01-17T10:52:00.709Z,1.55
2023-01-17T10:54:46.228Z,1.90
2023-01-17T10:57:20.389Z,1.85
2023-01-17T10:59:50.622Z,1.40
2023-01-17T11:02:28.521Z,3.90
2023-01-17T11:04:59.924Z,1.80
2023-01-17T11:07:31.561Z,2.50
2023-01-17T11:10:04.109Z,2.70
2023-01-17T11:12:46.810Z,1.60
2023-01-17T11:15:25.968Z,1.27
2023-01-17T11:18:05.822Z,1.45
2023-01-17T11:20:39.154Z,2.35
2023-01-17T11:23:16.038Z,1.45
2023-01-17T11:25:58.095Z,1.60
2023-01-17T11:28:30.774Z,1.38
2023-01-17T11:31:03.656Z,2.72
2023-01-17T11:33:46.074Z,3.60
2023-01-17T11:36:21.519Z,2.83
2023-01-17T11:39:02.861Z,2.28
2023-01-17T11:41:39.895Z,2.70
2023-01-17T11:44:25.845Z,2.90
2023-01-17T11:47:19.281Z,2.58
2023-01-17T11:49:51.636Z,2.45
2023-01-17T11:52:26.285Z,2.37
2023-01-17T11:57:32.842Z,1.83
2023-01-17T12:00:12.937Z,2.40
2023-01-17T12:03:21.940Z,2.88
2023-01-17T12:06:01.438Z,2.22
2023-01-17T12:08:51.293Z,2.65
2023-01-17T12:11:32.180Z,1.77
2023-01-17T12:14:12.934Z,1.45
2023-01-17T12:16:56.188Z,2.33
2023-01-17T12:19:38.125Z,1.27
2023-01-17T12:22:27.746Z,1.42
2023-01-17T12:25:25.241Z,1.10
2023-01-17T12:28:11.460Z,1.48
2023-01-17T12:30:54.279Z,1.60
2023-01-17T12:33:30.520Z,1.98
2023-01-17T12:36:04.707Z,1.30
2023-01-17T12:38:38.409Z,1.35
2023-01-17T12:41:13.944Z,1.92
2023-01-17T12:43:45.911Z,1.73
2023-01-17T12:46:24.614Z,1.10
2023-01-17T12:48:58.809Z,0.70
2023-01-17T12:51:33.368Z,0.90
2023-01-17T12:54:12.265Z,1.20
2023-01-17T12:56:48.738Z,0.93
2023-01-17T12:59:24.806Z,1.25
2023-01-17T13:02:03.082Z,1.80
2023-01-17T13:04:56.988Z,1.33
2023-01-17T13:07:37.844Z,1.27
2023-01-17T13:10:26.968Z,1.15
2023-01-17T13:13:01.911Z,1.20
2023-01-17T13:15:38.054Z,0.60
2023-01-17T13:18:17.381Z,0.90
2023-01-17T13:21:21.104Z,0.80
2023-01-17T13:24:15.247Z,0.90
2023-01-17T13:27:07.572Z,0.60
2023-01-17T13:29:47.023Z,1.30
2023-01-17T13:32:31.692Z,0.70
2023-01-17T13:35:39.935Z,0.75
2023-01-17T13:38:31.616Z,1.08
2023-01-17T13:41:10.776Z,1.05
2023-01-17T13:44:03.137Z,2.05
2023-01-17T13:46:33.448Z,0.70
2023-01-17T13:49:25.994Z,0.93
2023-01-17T13:52:33.176Z,1.73
2023-01-17T13:55:04.852Z,1.00
2023-01-17T13:57:47.487Z,0.70
2023-01-17T14:01:00.890Z,0.90
2023-01-17T14:04:01.029Z,1.20
2023-01-17T14:06:44.781Z,0.82
2023-01-17T14:09:21.464Z,0.83
2023-01-17T14:12:25.626Z,1.33
2023-01-17T14:14:58.773Z,0.80
2023-01-17T14:17:50.582Z,1.30
2023-01-17T14:20:56.707Z,1.20
2023-01-17T14:23:51.829Z,0.63
2023-01-17T14:29:37.354Z,0.90
2023-01-17T14:32:11.763Z,0.50
2023-01-17T14:37:21.227Z,1.33
2023-01-17T14:39:53.146Z,1.30
2023-01-17T14:42:28.310Z,2.28
2023-01-17T14:45:03.828Z,2.28
2023-01-17T14:47:36.505Z,3.17
2023-01-17T14:50:23.688Z,2.15
2023-01-17T14:53:20.083Z,2.10
2023-01-17T14:55:56.321Z,2.65
2023-01-17T14:58:30.754Z,2.22
2023-01-17T15:03:34.682Z,1.80
2023-01-17T15:06:13.013Z,1.95
2023-01-17T15:08:43.003Z,1.90
2023-01-17T15:11:19.582Z,1.98
2023-01-17T15:13:54.973Z,1.77
2023-01-17T15:16:28.538Z,1.27
2023-01-17T15:19:00.037Z,1.48
2023-01-17T15:21:32.466Z,1.33
2023-01-17T15:24:06.915Z,1.35
2023-01-17T15:29:11.607Z,0.88
2023-01-17T15:31:44.739Z,1.63
2023-01-17T15:34:23.593Z,1.50
2023-01-17T15:36:54.047Z,2.92
2023-01-17T15:39:27.795Z,1.30
2023-01-17T15:41:59.938Z,1.95
2023-01-17T15:44:47.502Z,1.58
2023-01-17T15:47:30.635Z,1.50
2023-01-17T15:50:01.638Z,1.35
2023-01-17T15:52:32.343Z,1.25
2023-01-17T15:55:14.036Z,1.17
2023-01-17T15:57:48.369Z,1.40
2023-01-17T16:00:26.713Z,1.55
2023-01-17T16:02:59.028Z,1.25
2023-01-17T16:05:38.696Z,1.45
2023-01-17T16:08:34.192Z,1.50
2023-01-17T16:11:06.459Z,1.80
2023-01-17T16:13:38.616Z,1.77
2023-01-17T16:16:20.949Z,2.35
2023-01-17T16:18:52.280Z,3.38
2023-01-17T16:21:30.314Z,2.90
2023-01-17T16:24:01.375Z,2.77
2023-01-17T16:26:31.729Z,4.07
2023-01-17T16:29:01.948Z,2.47
2023-01-17T16:31:35.380Z,3.00
2023-01-17T16:34:05.648Z,4.20
2023-01-17T16:36:36.687Z,3.93
2023-01-17T16:39:06.888Z,3.87
2023-01-17T16:41:36.913Z,7.17
2023-01-17T16:44:07.439Z,4.90
2023-01-17T16:46:39.965Z,5.13
2023-01-17T16:49:11.226Z,5.27
2023-01-17T16:51:41.145Z,5.33
2023-01-17T16:54:11.009Z,4.30
2023-01-17T16:56:40.999Z,4.57
2023-01-17T16:59:10.882Z,3.87
2023-01-17T17:01:43.412Z,4.50
2023-01-17T17:04:15.441Z,4.70
2023-01-17T17:06:45.404Z,4.17
2023-01-17T17:09:15.510Z,3.07
2023-01-17T17:11:45.400Z,2.73
2023-01-17T17:14:15.714Z,3.60
2023-01-17T17:16:51.747Z,3.03
2023-01-17T17:19:22.935Z,3.20
2023-01-17T17:21:53.196Z,3.00
2023-01-17T17:24:23.673Z,3.70
2023-01-17T17:26:53.875Z,3.40
2023-01-17T17:29:23.985Z,4.70
2023-01-17T17:31:56.453Z,3.70
2023-01-17T17:34:28.250Z,3.60
2023-01-17T17:36:58.547Z,4.10
2023-01-17T17:41:47.766Z,4.50
2023-01-17T17:44:17.978Z,5.63
2023-01-17T17:46:49.269Z,5.30
2023-01-17T17:49:21.795Z,6.90
2023-01-17T17:51:52.068Z,7.80
2023-01-17T17:54:24.678Z,6.63
2023-01-17T17:56:57.547Z,8.83
2023-01-17T17:59:27.750Z,9.07
2023-01-17T18:01:59.112Z,7.80
2023-01-17T18:04:29.812Z,8.10
2023-01-17T18:07:00.485Z,7.20
2023-01-17T18:09:30.600Z,5.20
2023-01-17T18:12:03.573Z,4.67
2023-01-17T18:14:34.032Z,5.07
2023-01-17T18:17:04.189Z,6.10
2023-01-17T18:19:34.291Z,6.20
2023-01-17T18:22:04.355Z,6.27
2023-01-17T18:24:34.475Z,6.33
2023-01-17T18:27:07.322Z,5.27
2023-01-17T18:29:37.268Z,5.53
2023-01-17T18:32:07.936Z,5.87
2023-01-17T18:34:41.442Z,4.37
2023-01-17T18:37:11.597Z,6.45
2023-01-17T18:39:42.727Z,6.03
2023-01-17T18:42:15.283Z,8.73
2023-01-17T18:44:45.528Z,8.93
2023-01-17T18:47:15.901Z,7.67
2023-01-17T18:49:45.956Z,8.30
2023-01-17T18:52:17.655Z,17.20
2023-01-17T18:54:47.660Z,10.63
2023-01-17T18:57:20.426Z,8.30
2023-01-17T18:59:50.415Z,7.10
2023-01-17T19:02:20.713Z,5.87
2023-01-17T19:04:50.737Z,6.47
2023-01-17T19:07:21.549Z,6.33
2023-01-17T19:09:51.853Z,5.67
2023-01-17T19:12:24.575Z,7.10
2023-01-17T19:14:54.627Z,7.57
2023-01-17T19:17:24.864Z,7.80
2023-01-17T19:19:57.056Z,8.37
2023-01-17T19:22:27.304Z,7.63
2023-01-17T19:24:57.529Z,7.77
2023-01-17T19:27:30.223Z,9.67
2023-01-17T19:30:00.347Z,11.47
2023-01-17T19:32:30.343Z,7.70
2023-01-17T19:35:00.287Z,9.10
2023-01-17T19:37:30.347Z,10.50
2023-01-17T19:40:00.271Z,8.47
2023-01-17T19:42:32.804Z,9.97
2023-01-17T19:45:02.808Z,8.40
2023-01-17T19:47:33.945Z,10.03
2023-01-17T19:50:04.893Z,8.10
2023-01-17T19:52:35.037Z,7.60
2023-01-17T19:55:07.096Z,7.83
2023-01-17T19:57:40.629Z,8.43
2023-01-17T20:00:17.921Z,8.07
2023-01-17T20:02:48.457Z,9.10
2023-01-17T20:05:19.636Z,9.20
2023-01-17T20:07:49.858Z,10.53
2023-01-17T20:10:21.050Z,9.97
2023-01-17T20:12:53.768Z,8.33
2023-01-17T20:15:23.920Z,8.33
2023-01-17T20:17:53.998Z,8.03
2023-01-17T20:20:24.103Z,8.33
2023-01-17T20:22:55.073Z,6.40
2023-01-17T20:25:25.139Z,6.93
2023-01-17T20:27:57.990Z,4.10
2023-01-17T20:30:30.529Z,4.90
2023-01-17T20:33:00.444Z,6.70
2023-01-17T20:35:31.254Z,8.00
2023-01-17T20:38:01.153Z,3.40
2023-01-17T20:40:31.022Z,4.97
2023-01-17T20:43:03.651Z,3.43
2023-01-17T20:45:33.621Z,3.53
2023-01-17T20:48:04.970Z,4.17
2023-01-17T20:50:36.827Z,3.00
2023-01-17T20:53:07.077Z,2.90
2023-01-17T20:55:37.404Z,2.97
2023-01-17T20:58:10.023Z,7.77
2023-01-17T21:00:42.585Z,5.87
2023-01-17T21:06:32.018Z,4.07
2023-01-17T21:09:04.660Z,4.83
2023-01-17T21:11:34.703Z,7.87
2023-01-17T21:14:07.357Z,6.50
2023-01-17T21:16:38.357Z,6.07
2023-01-17T21:19:12.007Z,4.37
2023-01-17T21:21:42.191Z,4.93
2023-01-17T21:24:16.358Z,4.63
2023-01-17T21:26:47.258Z,5.05
2023-01-17T21:29:19.808Z,4.00
2023-01-17T21:31:49.680Z,4.73
2023-01-17T21:34:19.653Z,4.73
2023-01-17T21:36:49.763Z,4.03
2023-01-17T21:39:21.505Z,4.17
2023-01-17T21:41:51.804Z,4.80
2023-01-17T21:44:26.136Z,4.63
2023-01-17T21:46:57.835Z,3.92
2023-01-17T21:49:27.755Z,3.73
2023-01-17T21:52:10.287Z,4.07
2023-01-17T21:54:52.726Z,3.87
2023-01-17T21:57:36.656Z,5.60
2023-01-17T22:00:12.110Z,5.90
2023-01-17T22:02:42.458Z,4.40
2023-01-17T22:05:12.979Z,3.30
2023-01-17T22:08:03.239Z,3.50
2023-01-17T22:10:33.246Z,3.13
2023-01-17T22:13:03.148Z,2.67
2023-01-17T22:15:36.581Z,3.27
2023-01-17T22:18:06.924Z,3.17
2023-01-17T22:20:37.087Z,5.10
2023-01-17T22:23:09.522Z,6.30
2023-01-17T22:25:39.651Z,3.40
2023-01-17T22:28:09.665Z,3.77
2023-01-17T22:30:42.338Z,3.23
2023-01-17T22:33:12.315Z,2.73
2023-01-17T22:35:42.215Z,2.63
2023-01-17T22:38:12.179Z,2.90
2023-01-17T22:40:42.196Z,2.60
2023-01-17T22:43:12.084Z,2.50
2023-01-17T22:45:45.949Z,2.63
2023-01-17T22:48:15.823Z,3.25
2023-01-17T22:50:46.348Z,3.00
2023-01-17T22:53:16.231Z,3.20
2023-01-17T22:55:46.077Z,3.00
2023-01-17T22:58:15.992Z,2.30
2023-01-17T23:00:49.685Z,2.67
2023-01-17T23:03:19.865Z,2.92
2023-01-17T23:05:49.787Z,3.57
2023-01-17T23:08:20.162Z,4.83
2023-01-17T23:11:02.712Z,6.20
2023-01-17T23:13:32.767Z,7.50
2023-01-17T23:16:34.460Z,9.57
2023-01-17T23:19:17.074Z,7.53
2023-01-17T23:21:59.388Z,6.40
2023-01-17T23:24:29.394Z,5.17
2023-01-17T23:27:11.728Z,4.70
2023-01-17T23:29:41.698Z,3.60
2023-01-17T23:32:14.170Z,3.70
2023-01-17T23:34:44.073Z,3.50
2023-01-17T23:37:13.957Z,3.87
2023-01-17T23:39:44.016Z,4.13
2023-01-17T23:42:26.474Z,4.00
2023-01-17T23:44:56.494Z,3.90
2023-01-17T23:47:29.034Z,4.37
2023-01-17T23:49:58.919Z,4.27
2023-01-17T23:52:28.869Z,4.60
2023-01-17T23:54:58.752Z,4.10
2023-01-17T23:57:28.668Z,4.57
2023-01-17T23:59:58.540Z,4.87
